createdAt,value
2018-12-03T00:01:44.274Z,99208.28
2018-12-03T00:04:21.951Z,99212.84
2018-12-03T00:06:52.035Z,99186.70
2018-12-03T00:09:22.574Z,99182.14
2018-12-03T00:11:52.521Z,99189.45
2018-12-03T00:14:22.524Z,99209.06
2018-12-03T00:16:52.483Z,99208.67
2018-12-03T00:19:22.436Z,99211.25
2018-12-03T00:21:52.409Z,99214.00
2018-12-03T00:24:22.369Z,99207.67
2018-12-03T00:26:52.352Z,99207.48
2018-12-03T00:29:22.286Z,99211.44
2018-12-03T00:31:52.242Z,99205.50
2018-12-03T00:34:22.171Z,99206.68
2018-12-03T00:36:52.138Z,99208.65
2018-12-03T00:39:22.111Z,99206.48
2018-12-03T00:41:52.010Z,99200.54
2018-12-03T00:44:21.970Z,99218.56
2018-12-03T00:46:51.922Z,99216.58
2018-12-03T00:49:21.881Z,99210.42
2018-12-03T00:51:51.832Z,99223.52
2018-12-03T00:54:21.790Z,99228.86
2018-12-03T00:56:51.755Z,99217.37
2018-12-03T00:59:21.674Z,99221.33
2018-12-03T01:01:51.570Z,99218.35
2018-12-03T01:04:21.577Z,99222.11
2018-12-03T01:06:51.506Z,99220.12
2018-12-03T01:09:21.470Z,99222.09
2018-12-03T01:11:51.405Z,99219.89
2018-12-03T01:14:21.341Z,99221.89
2018-12-03T01:16:51.259Z,99226.63
2018-12-03T01:19:21.277Z,99229.40
2018-12-03T01:21:51.261Z,99230.20
2018-12-03T01:24:21.192Z,99230.01
2018-12-03T01:26:51.052Z,99247.42
2018-12-03T01:29:20.983Z,99243.27
2018-12-03T01:31:50.954Z,99246.84
2018-12-03T01:34:20.925Z,99243.47
2018-12-03T01:36:50.897Z,99247.05
2018-12-03T01:39:20.896Z,99266.08
2018-12-03T01:41:50.849Z,99263.50
2018-12-03T01:44:20.809Z,99259.74
2018-12-03T01:46:50.779Z,99266.07
2018-12-03T01:49:20.690Z,99261.73
2018-12-03T01:51:50.592Z,99266.67
2018-12-03T01:54:21.427Z,99263.72
2018-12-03T01:56:51.327Z,99257.36
2018-12-03T01:59:21.913Z,99260.95
2018-12-03T02:01:52.641Z,99261.15
2018-12-03T02:04:22.563Z,99256.98
2018-12-03T02:06:52.536Z,99250.05
2018-12-03T02:09:22.493Z,99250.63
2018-12-03T02:11:52.458Z,99243.91
2018-12-03T02:14:22.417Z,99240.73
2018-12-03T02:16:52.358Z,99228.46
2018-12-03T02:19:22.337Z,99224.50
2018-12-03T02:21:52.341Z,99225.69
2018-12-03T02:24:22.297Z,99212.22
2018-12-03T02:26:52.231Z,99198.55
2018-12-03T02:29:22.178Z,99193.78
2018-12-03T02:31:52.123Z,99195.78
2018-12-03T02:34:22.057Z,99195.17
2018-12-03T02:36:52.022Z,99193.20
2018-12-03T02:39:21.987Z,99193.20
2018-12-03T02:41:51.977Z,99189.25
2018-12-03T02:44:21.958Z,99183.50
2018-12-03T02:46:51.988Z,99186.67
2018-12-03T02:49:21.912Z,99189.45
2018-12-03T02:51:51.786Z,99190.83
2018-12-03T02:54:21.757Z,99187.86
2018-12-03T02:56:51.724Z,99193.00
2018-12-03T02:59:21.627Z,99185.69
2018-12-03T03:01:51.570Z,99191.03
2018-12-03T03:04:21.564Z,99186.88
2018-12-03T03:06:51.514Z,99189.64
2018-12-03T03:09:21.436Z,99188.84
2018-12-03T03:11:51.358Z,99193.61
2018-12-03T03:14:21.286Z,99196.38
2018-12-03T03:16:51.217Z,99191.82
2018-12-03T03:19:21.139Z,99188.06
2018-12-03T03:21:51.068Z,99182.12
2018-12-03T03:24:21.013Z,99194.80
2018-12-03T03:26:50.957Z,99191.82
2018-12-03T03:29:20.926Z,99192.02
2018-12-03T03:31:50.895Z,99189.25
2018-12-03T03:34:20.858Z,99160.52
2018-12-03T03:36:50.813Z,99156.16
2018-12-03T03:39:20.807Z,99155.37
2018-12-03T03:41:50.832Z,99145.27
2018-12-03T03:44:20.796Z,99136.56
2018-12-03T03:46:50.733Z,99127.84
2018-12-03T03:49:20.664Z,99154.97
2018-12-03T03:51:50.574Z,99169.22
2018-12-03T03:54:25.272Z,99170.98
2018-12-03T03:56:51.008Z,99173.52
2018-12-03T03:59:20.901Z,99176.09
2018-12-03T04:01:50.844Z,99174.52
2018-12-03T04:04:20.809Z,99182.23
2018-12-03T04:06:50.720Z,99190.14
2018-12-03T04:09:20.649Z,99203.81
2018-12-03T04:11:50.588Z,99211.72
2018-12-03T04:14:20.558Z,99222.81
2018-12-03T04:16:50.510Z,99231.94
2018-12-03T04:19:20.406Z,99230.55
2018-12-03T04:21:50.376Z,99236.87
2018-12-03T04:24:20.316Z,99234.91
2018-12-03T04:26:50.277Z,99231.73
2018-12-03T04:29:20.228Z,99215.09
2018-12-03T04:31:50.210Z,99218.67
2018-12-03T04:34:20.145Z,99225.61
2018-12-03T04:36:50.136Z,99221.64
2018-12-03T04:39:20.099Z,99237.09
2018-12-03T04:41:50.024Z,99220.26
2018-12-03T04:44:19.953Z,99236.28
2018-12-03T04:46:49.985Z,99238.48
2018-12-03T04:49:19.898Z,99228.37
2018-12-03T04:51:49.849Z,99233.14
2018-12-03T04:54:19.810Z,99240.64
2018-12-03T04:56:49.788Z,99240.64
2018-12-03T04:59:19.732Z,99239.06
2018-12-03T05:01:49.701Z,99240.24
2018-12-03T05:04:19.629Z,99241.43
2018-12-03T05:06:49.607Z,99248.36
2018-12-03T05:09:19.590Z,99245.38
2018-12-03T05:11:49.544Z,99243.80
2018-12-03T05:14:19.494Z,99246.57
2018-12-03T05:16:49.426Z,99251.71
2018-12-03T05:19:19.430Z,99249.34
2018-12-03T05:21:49.343Z,99253.50
2018-12-03T05:24:19.333Z,99246.17
2018-12-03T05:26:49.221Z,99247.55
2018-12-03T05:29:19.204Z,99245.97
2018-12-03T05:31:49.151Z,99248.54
2018-12-03T05:34:19.162Z,99241.41
2018-12-03T05:36:49.136Z,99242.22
2018-12-03T05:39:19.685Z,99244.18
2018-12-03T05:41:49.563Z,99246.17
2018-12-03T05:44:19.542Z,99247.36
2018-12-03T05:46:49.477Z,99244.97
2018-12-03T05:49:19.446Z,99247.73
2018-12-03T05:51:49.405Z,99247.94
2018-12-03T05:54:19.381Z,99251.11
2018-12-03T05:56:49.366Z,99250.91
2018-12-03T05:59:19.338Z,99248.92
2018-12-03T06:01:49.306Z,99247.53
2018-12-03T06:04:19.236Z,99241.41
2018-12-03T06:06:49.175Z,99244.97
2018-12-03T06:09:19.198Z,99247.53
2018-12-03T06:11:49.175Z,99247.73
2018-12-03T06:14:19.134Z,99246.95
2018-12-03T06:16:49.037Z,99250.91
2018-12-03T06:19:18.982Z,99255.65
2018-12-03T06:21:53.794Z,99251.09
2018-12-03T06:24:24.117Z,99256.83
2018-12-03T06:26:54.133Z,99254.47
2018-12-03T06:29:24.019Z,99248.11
2018-12-03T06:31:53.944Z,99240.41
2018-12-03T06:34:23.833Z,99254.84
2018-12-03T06:36:53.788Z,99253.25
2018-12-03T06:39:24.898Z,99255.63
2018-12-03T06:41:54.847Z,99263.53
2018-12-03T06:44:24.791Z,99252.82
2018-12-03T06:46:54.991Z,99258.77
2018-12-03T06:49:24.961Z,99250.05
2018-12-03T06:51:54.842Z,99262.32
2018-12-03T06:54:24.855Z,99256.98
2018-12-03T06:56:54.817Z,99266.27
2018-12-03T06:59:24.804Z,99269.66
2018-12-03T07:01:54.783Z,99252.42
2018-12-03T07:04:24.747Z,99260.53
2018-12-03T07:06:54.651Z,99266.88
2018-12-03T07:09:24.663Z,99272.62
2018-12-03T07:11:54.566Z,99260.36
2018-12-03T07:14:24.529Z,99265.90
2018-12-03T07:16:54.718Z,99264.72
2018-12-03T07:19:25.129Z,99264.92
2018-12-03T07:21:55.280Z,99258.77
2018-12-03T07:24:25.613Z,99266.30
2018-12-03T07:26:55.667Z,99261.73
2018-12-03T07:29:25.874Z,99263.53
2018-12-03T07:31:55.899Z,99263.53
2018-12-03T07:34:25.867Z,99265.12
2018-12-03T07:36:55.825Z,99268.30
2018-12-03T07:39:25.782Z,99264.34
2018-12-03T07:41:55.726Z,99276.64
2018-12-03T07:44:25.689Z,99266.53
2018-12-03T07:46:55.651Z,99295.45
2018-12-03T07:49:25.646Z,99288.53
2018-12-03T07:51:55.535Z,99283.56
2018-12-03T07:54:25.495Z,99296.03
2018-12-03T07:56:55.425Z,99301.17
2018-12-03T07:59:25.340Z,99307.33
2018-12-03T08:01:55.400Z,99306.72
2018-12-03T08:04:25.396Z,99308.71
2018-12-03T08:06:55.417Z,99310.50
2018-12-03T08:09:25.340Z,99312.69
2018-12-03T08:11:55.358Z,99307.75
2018-12-03T08:14:25.348Z,99307.17
2018-12-03T08:16:55.338Z,99314.33
2018-12-03T08:19:25.373Z,99314.80
2018-12-03T08:21:55.331Z,99318.38
2018-12-03T08:24:25.369Z,99309.47
2018-12-03T08:26:55.756Z,99305.71
2018-12-03T08:29:25.699Z,99302.55
2018-12-03T08:31:55.607Z,99308.92
2018-12-03T08:34:25.634Z,99306.16
2018-12-03T08:36:55.655Z,99302.22
2018-12-03T08:39:25.614Z,99296.09
2018-12-03T08:41:55.555Z,99305.81
2018-12-03T08:44:30.768Z,99303.66
2018-12-03T08:47:12.509Z,99304.45
2018-12-03T08:49:42.526Z,99306.63
2018-12-03T08:52:14.583Z,99301.48
2018-12-03T08:54:44.748Z,99306.23
2018-12-03T08:57:14.717Z,99305.63
2018-12-03T08:59:44.761Z,99308.80
2018-12-03T09:02:15.354Z,99312.58
2018-12-03T09:04:45.726Z,99308.81
2018-12-03T09:07:15.674Z,99311.78
2018-12-03T09:09:45.578Z,99311.41
2018-12-03T09:12:15.513Z,99320.71
2018-12-03T09:14:45.499Z,99319.33
2018-12-03T09:17:15.409Z,99324.08
2018-12-03T09:19:50.119Z,99326.06
2018-12-03T09:22:20.031Z,99327.47
2018-12-03T09:24:49.972Z,99325.67
2018-12-03T09:27:19.921Z,99315.16
2018-12-03T09:29:49.850Z,99319.74
2018-12-03T09:32:19.938Z,99316.59
2018-12-03T09:34:49.919Z,99322.72
2018-12-03T09:37:19.879Z,99316.97
2018-12-03T09:39:50.784Z,99324.30
2018-12-03T09:42:20.731Z,99314.76
2018-12-03T09:44:50.650Z,99321.50
2018-12-03T09:47:20.628Z,99323.30
2018-12-03T09:49:50.576Z,99330.42
2018-12-03T09:52:20.501Z,99320.11
2018-12-03T09:54:50.473Z,99312.38
2018-12-03T09:57:20.491Z,99320.11
2018-12-03T09:59:50.446Z,99316.75
2018-12-03T10:02:27.177Z,99331.02
2018-12-03T10:04:59.623Z,99321.70
2018-12-03T10:07:29.642Z,99323.07
2018-12-03T10:09:59.652Z,99323.48
2018-12-03T10:12:29.646Z,99321.69
2018-12-03T10:14:59.645Z,99325.84
2018-12-03T10:17:29.637Z,99320.09
2018-12-03T10:19:59.616Z,99313.36
2018-12-03T10:22:29.618Z,99315.72
2018-12-03T10:24:59.564Z,99315.52
2018-12-03T10:27:29.539Z,99309.95
2018-12-03T10:29:59.502Z,99298.07
2018-12-03T10:32:29.453Z,99301.42
2018-12-03T10:34:59.403Z,99308.36
2018-12-03T10:37:29.367Z,99303.02
2018-12-03T10:39:59.338Z,99300.84
2018-12-03T10:42:29.303Z,99291.14
2018-12-03T10:44:59.320Z,99288.78
2018-12-03T10:47:29.255Z,99294.72
2018-12-03T10:49:59.277Z,99300.69
2018-12-03T10:52:29.262Z,99290.77
2018-12-03T10:54:59.267Z,99287.40
2018-12-03T10:57:29.291Z,99291.76
2018-12-03T10:59:59.270Z,99289.77
2018-12-03T11:02:37.115Z,99288.17
2018-12-03T11:05:14.206Z,99284.45
2018-12-03T11:07:44.291Z,99279.07
2018-12-03T11:10:14.256Z,99266.55
2018-12-03T11:12:47.254Z,99268.75
2018-12-03T11:15:17.173Z,99277.28
2018-12-03T11:17:47.249Z,99269.37
2018-12-03T11:20:17.215Z,99268.95
2018-12-03T11:22:47.400Z,99268.57
2018-12-03T11:25:18.473Z,99256.05
2018-12-03T11:27:51.138Z,99247.91
2018-12-03T11:30:21.168Z,99242.14
2018-12-03T11:32:51.158Z,99245.09
2018-12-03T11:35:35.595Z,99237.92
2018-12-03T11:38:10.830Z,99241.30
2018-12-03T11:40:50.502Z,99241.84
2018-12-03T11:43:20.412Z,99235.28
2018-12-03T11:45:50.388Z,99230.08
2018-12-03T11:48:20.288Z,99226.72
2018-12-03T11:50:50.247Z,99223.09
2018-12-03T11:53:20.200Z,99215.91
2018-12-03T11:55:50.132Z,99211.06
2018-12-03T11:58:20.100Z,99208.03
2018-12-03T12:00:50.078Z,99212.54
2018-12-03T12:03:19.982Z,99199.38
2018-12-03T12:05:49.868Z,99199.75
2018-12-03T12:08:20.371Z,99210.25
2018-12-03T12:10:49.727Z,99200.70
2018-12-03T12:13:19.687Z,99194.52
2018-12-03T12:15:49.674Z,99195.53
2018-12-03T12:18:19.588Z,99194.19
2018-12-03T12:20:49.519Z,99198.98
2018-12-03T12:23:19.471Z,99194.83
2018-12-03T12:25:49.488Z,99193.44
2018-12-03T12:28:19.508Z,99181.36
2018-12-03T12:30:49.508Z,99197.09
2018-12-03T12:33:19.655Z,99196.14
2018-12-03T12:35:49.602Z,99180.88
2018-12-03T12:38:19.532Z,99176.92
2018-12-03T12:40:49.451Z,99175.16
2018-12-03T12:43:19.598Z,99175.00
2018-12-03T12:45:57.876Z,99156.55
2018-12-03T12:48:27.801Z,99150.84
2018-12-03T12:50:57.936Z,99161.38
2018-12-03T12:53:27.874Z,99166.36
2018-12-03T12:55:57.861Z,99164.17
2018-12-03T12:58:27.858Z,99161.62
2018-12-03T13:00:57.832Z,99149.73
2018-12-03T13:03:28.830Z,99135.84
2018-12-03T13:05:58.770Z,99133.87
2018-12-03T13:08:28.688Z,99130.90
2018-12-03T13:10:58.659Z,99140.85
2018-12-03T13:13:28.708Z,99128.92
2018-12-03T13:15:58.745Z,99128.55
2018-12-03T13:18:28.691Z,99127.95
2018-12-03T13:20:58.686Z,99125.18
2018-12-03T13:23:28.728Z,99131.70
2018-12-03T13:25:59.124Z,99122.17
2018-12-03T13:28:29.095Z,99127.54
2018-12-03T13:30:59.043Z,99131.13
2018-12-03T13:33:29.027Z,99136.07
2018-12-03T13:35:59.053Z,99133.91
2018-12-03T13:38:29.454Z,99131.70
2018-12-03T13:40:59.781Z,99134.48
2018-12-03T13:43:29.528Z,99132.91
2018-12-03T13:45:59.525Z,99130.35
2018-12-03T13:48:29.555Z,99115.27
2018-12-03T13:50:59.569Z,99113.69
2018-12-03T13:53:29.558Z,99107.94
2018-12-03T13:55:59.531Z,99106.16
2018-12-03T13:58:29.503Z,99112.91
2018-12-03T14:00:59.461Z,99109.94
2018-12-03T14:03:32.664Z,99122.83
2018-12-03T14:06:16.472Z,99111.14
2018-12-03T14:09:01.997Z,99107.97
2018-12-03T14:11:56.120Z,99111.17
2018-12-03T14:15:41.415Z,99116.54
2018-12-03T14:18:19.808Z,99108.98
2018-12-03T14:20:51.681Z,99109.59
2018-12-03T14:23:30.743Z,99105.62
2018-12-03T14:26:00.748Z,99104.81
2018-12-03T14:28:30.768Z,99103.03
2018-12-03T14:31:00.785Z,99098.86
2018-12-03T14:33:30.824Z,99096.28
2018-12-03T14:36:00.837Z,99086.36
2018-12-03T14:38:30.825Z,99087.14
2018-12-03T14:41:00.900Z,99087.56
2018-12-03T14:43:30.847Z,99094.50
2018-12-03T14:46:00.818Z,99095.50
2018-12-03T14:48:30.789Z,99093.92
2018-12-03T14:51:00.769Z,99092.34
2018-12-03T14:53:30.693Z,99104.45
2018-12-03T14:56:00.676Z,99105.66
2018-12-03T14:58:30.603Z,99115.19
2018-12-03T15:01:00.564Z,99120.34
2018-12-03T15:03:30.524Z,99113.21
2018-12-03T15:06:00.721Z,99121.16
2018-12-03T15:08:30.658Z,99116.80
2018-12-03T15:11:00.635Z,99110.05
2018-12-03T15:13:30.628Z,99110.23
2018-12-03T15:16:00.579Z,99112.44
2018-12-03T15:18:30.614Z,99115.83
2018-12-03T15:21:00.713Z,99117.80
2018-12-03T15:23:30.718Z,99122.38
2018-12-03T15:26:00.707Z,99121.98
2018-12-03T15:28:30.680Z,99122.01
2018-12-03T15:31:00.703Z,99114.88
2018-12-03T15:33:30.672Z,99113.70
2018-12-03T15:36:00.640Z,99115.70
2018-12-03T15:38:30.557Z,99120.27
2018-12-03T15:41:00.515Z,99114.71
2018-12-03T15:43:30.485Z,99115.92
2018-12-03T15:46:00.459Z,99123.86
2018-12-03T15:48:30.419Z,99126.82
2018-12-03T15:51:00.417Z,99121.46
2018-12-03T15:53:30.333Z,99122.26
2018-12-03T15:56:00.325Z,99120.67
2018-12-03T15:58:30.301Z,99124.05
2018-12-03T16:01:00.331Z,99129.02
2018-12-03T16:03:30.378Z,99128.22
2018-12-03T16:06:00.362Z,99120.70
2018-12-03T16:08:30.310Z,99115.95
2018-12-03T16:11:00.316Z,99113.39
2018-12-03T16:13:30.314Z,99114.77
2018-12-03T16:16:00.286Z,99110.02
2018-12-03T16:18:30.314Z,99120.52
2018-12-03T16:21:00.309Z,99114.77
2018-12-03T16:23:30.317Z,99113.19
2018-12-03T16:26:00.461Z,99111.98
2018-12-03T16:28:30.446Z,99109.02
2018-12-03T16:31:00.470Z,99110.00
2018-12-03T16:33:30.462Z,99112.38
2018-12-03T16:36:00.407Z,99105.47
2018-12-03T16:38:30.409Z,99105.86
2018-12-03T16:41:00.378Z,99098.53
2018-12-03T16:43:30.420Z,99097.91
2018-12-03T16:46:00.442Z,99097.28
2018-12-03T16:48:30.436Z,99092.34
2018-12-03T16:51:00.414Z,99094.52
2018-12-03T16:53:30.351Z,99094.12
2018-12-03T16:56:00.313Z,99099.27
2018-12-03T16:58:30.283Z,99110.77
2018-12-03T17:01:00.377Z,99110.77
2018-12-03T17:03:30.341Z,99114.11
2018-12-03T17:06:00.370Z,99123.61
2018-12-03T17:08:30.369Z,99125.41
2018-12-03T17:11:00.350Z,99125.78
2018-12-03T17:13:30.309Z,99128.56
2018-12-03T17:16:00.981Z,99128.97
2018-12-03T17:18:30.941Z,99132.73
2018-12-03T17:21:11.274Z,99130.53
2018-12-03T17:23:59.938Z,99132.53
2018-12-03T17:26:29.895Z,99128.95
2018-12-03T17:29:00.143Z,99123.41
2018-12-03T17:31:30.180Z,99123.41
2018-12-03T17:34:00.202Z,99114.11
2018-12-03T17:36:30.192Z,99121.24
2018-12-03T17:39:00.218Z,99113.50
2018-12-03T17:41:30.596Z,99127.36
2018-12-03T17:44:00.488Z,99116.28
2018-12-03T17:46:30.525Z,99112.50
2018-12-03T17:49:00.549Z,99117.47
2018-12-03T17:51:30.552Z,99127.74
2018-12-03T17:54:00.581Z,99120.23
2018-12-03T17:56:30.569Z,99128.15
2018-12-03T17:59:00.730Z,99136.47
2018-12-03T18:01:30.672Z,99135.08
2018-12-03T18:04:00.628Z,99130.92
2018-12-03T18:06:30.580Z,99136.47
2018-12-03T18:09:00.585Z,99133.08
2018-12-03T18:11:30.580Z,99137.84
2018-12-03T18:14:00.658Z,99153.87
2018-12-03T18:16:30.643Z,99154.47
2018-12-03T18:19:00.589Z,99155.86
2018-12-03T18:21:30.505Z,99161.41
2018-12-03T18:24:00.463Z,99161.60
2018-12-03T18:26:30.478Z,99167.55
2018-12-03T18:29:00.472Z,99155.88
2018-12-03T18:31:30.397Z,99157.47
2018-12-03T18:34:00.306Z,99159.83
2018-12-03T18:36:30.294Z,99166.96
2018-12-03T18:39:00.309Z,99169.93
2018-12-03T18:41:30.250Z,99170.74
2018-12-03T18:44:00.331Z,99172.70
2018-12-03T18:46:30.399Z,99175.67
2018-12-03T18:49:09.671Z,99168.17
2018-12-03T18:51:40.199Z,99175.88
2018-12-03T18:54:10.430Z,99174.48
2018-12-03T18:56:40.786Z,99177.26
2018-12-03T18:59:10.794Z,99184.39
2018-12-03T19:01:40.807Z,99179.25
2018-12-03T19:04:10.824Z,99184.59
2018-12-03T19:06:40.828Z,99187.17
2018-12-03T19:09:14.596Z,99192.52
2018-12-03T19:11:49.010Z,99190.12
2018-12-03T19:14:18.946Z,99204.78
2018-12-03T19:16:49.112Z,99201.60
2018-12-03T19:19:20.434Z,99200.22
2018-12-03T19:21:50.955Z,99210.73
2018-12-03T19:24:21.066Z,99216.47
2018-12-03T19:26:51.021Z,99215.28
2018-12-03T19:29:21.385Z,99219.84
2018-12-03T19:31:51.410Z,99210.72
2018-12-03T19:34:21.423Z,99224.78
2018-12-03T19:36:51.413Z,99217.84
2018-12-03T19:39:21.476Z,99226.36
2018-12-03T19:41:51.483Z,99221.23
2018-12-03T19:44:21.478Z,99223.19
2018-12-03T19:46:51.508Z,99217.25
2018-12-03T19:49:21.574Z,99223.77
2018-12-03T19:51:51.684Z,99229.31
2018-12-03T19:54:22.033Z,99224.56
2018-12-03T19:56:52.039Z,99228.52
2018-12-03T19:59:23.880Z,99235.44
2018-12-03T20:01:53.906Z,99242.98
2018-12-03T20:04:28.958Z,99236.25
2018-12-03T20:06:58.892Z,99245.34
2018-12-03T20:09:28.952Z,99248.92
2018-12-03T20:11:59.124Z,99247.73
2018-12-03T20:14:29.090Z,99252.67
2018-12-03T20:17:00.752Z,99272.67
2018-12-03T20:19:30.790Z,99277.64
2018-12-03T20:22:01.286Z,99271.50
2018-12-03T20:24:31.299Z,99270.92
2018-12-03T20:28:11.834Z,99276.05
2018-12-03T20:30:59.017Z,99277.06
2018-12-03T20:35:45.222Z,99272.30
2018-12-03T20:38:36.067Z,99291.91
2018-12-03T20:41:21.280Z,99293.29
2018-12-03T20:43:53.596Z,99309.72
2018-12-03T20:46:42.769Z,99313.67
2018-12-03T20:50:02.416Z,99322.97
2018-12-03T20:52:33.035Z,99332.06
2018-12-03T20:55:10.466Z,99343.93
2018-12-03T20:57:40.489Z,99338.16
2018-12-03T21:00:11.159Z,99340.72
2018-12-03T21:02:41.132Z,99342.67
2018-12-03T21:05:11.520Z,99351.36
2018-12-03T21:07:41.577Z,99357.27
2018-12-03T21:10:11.669Z,99365.55
2018-12-03T21:12:41.730Z,99368.09
2018-12-03T21:15:11.736Z,99374.17
2018-12-03T21:17:41.783Z,99374.17
2018-12-03T21:20:26.265Z,99382.44
2018-12-03T21:22:56.302Z,99382.80
2018-12-03T21:25:26.511Z,99389.31
2018-12-03T21:27:56.458Z,99392.64
2018-12-03T21:30:26.509Z,99386.89
2018-12-03T21:32:56.514Z,99403.31
2018-12-03T21:35:26.532Z,99404.08
2018-12-03T21:37:57.655Z,99399.72
2018-12-03T21:40:27.603Z,99406.64
2018-12-03T21:42:57.595Z,99414.73
2018-12-03T21:45:27.649Z,99412.17
2018-12-03T21:47:57.644Z,99418.52
2018-12-03T21:50:27.685Z,99420.69
2018-12-03T21:52:57.718Z,99412.59
2018-12-03T21:55:27.721Z,99427.04
2018-12-03T21:57:58.691Z,99427.41
2018-12-03T22:00:28.685Z,99422.23
2018-12-03T22:02:58.670Z,99435.50
2018-12-03T22:05:28.651Z,99442.63
2018-12-03T22:07:58.696Z,99438.84
2018-12-03T22:10:28.675Z,99445.56
2018-12-03T22:12:58.672Z,99454.27
2018-12-03T22:15:28.624Z,99456.83
2018-12-03T22:17:58.619Z,99455.39
2018-12-03T22:20:28.561Z,99466.45
2018-12-03T22:22:58.540Z,99472.34
2018-12-03T22:25:28.528Z,99476.63
2018-12-03T22:27:58.519Z,99489.22
2018-12-03T22:30:28.710Z,99501.38
2018-12-03T22:32:58.686Z,99497.92
2018-12-03T22:35:28.660Z,99512.31
2018-12-03T22:37:58.650Z,99518.60
2018-12-03T22:40:28.595Z,99529.64
2018-12-03T22:42:58.580Z,99535.93
2018-12-03T22:45:28.591Z,99531.72
2018-12-03T22:47:58.528Z,99542.94
2018-12-03T22:50:28.512Z,99547.47
2018-12-03T22:52:58.446Z,99556.31
2018-12-03T22:55:28.397Z,99554.30
2018-12-03T22:57:58.347Z,99558.03
2018-12-03T23:00:33.298Z,99570.05
2018-12-03T23:03:03.258Z,99576.33
2018-12-03T23:05:33.174Z,99573.14
2018-12-03T23:08:03.119Z,99576.87
2018-12-03T23:10:33.089Z,99587.30
2018-12-03T23:13:03.117Z,99592.76
2018-12-03T23:15:33.065Z,99598.64
2018-12-03T23:18:03.028Z,99599.39
2018-12-03T23:20:33.042Z,99605.88
2018-12-03T23:23:02.993Z,99603.29
2018-12-03T23:25:32.990Z,99618.28
2018-12-03T23:28:02.960Z,99626.16
2018-12-03T23:30:32.931Z,99627.32
2018-12-03T23:33:02.894Z,99644.27
2018-12-03T23:35:33.169Z,99648.41
2018-12-03T23:38:02.890Z,99655.71
2018-12-03T23:40:32.861Z,99660.64
2018-12-03T23:43:02.849Z,99654.89
2018-12-03T23:45:32.846Z,99668.51
2018-12-03T23:48:02.802Z,99667.34
2018-12-03T23:50:32.774Z,99675.20
2018-12-03T23:53:02.700Z,99679.14
2018-12-03T23:55:32.622Z,99692.31
2018-12-03T23:58:02.580Z,99693.05
